sensor_id;sensor_type;location;lat;lon;timestamp;P1;durP1;ratioP1;P2;durP2;ratioP2
57718;SDS011;43561;50.090;18.522;2022-11-20T00:06:40;179.60;;;96.43;;
57718;SDS011;43561;50.090;18.522;2022-11-20T00:16:42;222.43;;;135.45;;
57718;SDS011;43561;50.090;18.522;2022-11-20T00:26:44;219.57;;;133.10;;
57718;SDS011;43561;50.090;18.522;2022-11-20T00:36:46;213.38;;;134.05;;
57718;SDS011;43561;50.090;18.522;2022-11-20T00:46:47;211.75;;;121.50;;
57718;SDS011;43561;50.090;18.522;2022-11-20T00:56:52;146.32;;;106.78;;
57718;SDS011;43561;50.090;18.522;2022-11-20T01:06:54;161.77;;;116.20;;
57718;SDS011;43561;50.090;18.522;2022-11-20T01:16:56;216.18;;;123.10;;
57718;SDS011;43561;50.090;18.522;2022-11-20T01:26:58;177.80;;;112.13;;
57718;SDS011;43561;50.090;18.522;2022-11-20T01:37:00;165.50;;;109.45;;
57718;SDS011;43561;50.090;18.522;2022-11-20T01:47:03;188.05;;;109.80;;
57718;SDS011;43561;50.090;18.522;2022-11-20T01:57:08;152.60;;;110.03;;
57718;SDS011;43561;50.090;18.522;2022-11-20T02:07:13;195.50;;;122.22;;
57718;SDS011;43561;50.090;18.522;2022-11-20T02:17:15;220.15;;;130.20;;
57718;SDS011;43561;50.090;18.522;2022-11-20T02:27:17;164.63;;;109.47;;
57718;SDS011;43561;50.090;18.522;2022-11-20T02:37:20;167.80;;;109.90;;
57718;SDS011;43561;50.090;18.522;2022-11-20T02:47:22;179.75;;;93.88;;
57718;SDS011;43561;50.090;18.522;2022-11-20T02:57:24;133.90;;;77.55;;
57718;SDS011;43561;50.090;18.522;2022-11-20T03:07:26;88.05;;;70.13;;
57718;SDS011;43561;50.090;18.522;2022-11-20T03:17:29;138.95;;;84.45;;
57718;SDS011;43561;50.090;18.522;2022-11-20T03:27:31;173.27;;;92.95;;
57718;SDS011;43561;50.090;18.522;2022-11-20T03:37:35;123.53;;;85.70;;
57718;SDS011;43561;50.090;18.522;2022-11-20T03:47:36;159.57;;;95.70;;
57718;SDS011;43561;50.090;18.522;2022-11-20T03:57:38;133.80;;;91.88;;
57718;SDS011;43561;50.090;18.522;2022-11-20T04:07:41;104.55;;;75.45;;
57718;SDS011;43561;50.090;18.522;2022-11-20T04:17:43;114.32;;;63.72;;
57718;SDS011;43561;50.090;18.522;2022-11-20T04:27:45;108.03;;;79.13;;
57718;SDS011;43561;50.090;18.522;2022-11-20T04:37:46;166.38;;;91.45;;
57718;SDS011;43561;50.090;18.522;2022-11-20T04:47:48;148.85;;;76.38;;
57718;SDS011;43561;50.090;18.522;2022-11-20T04:57:50;124.10;;;80.63;;
57718;SDS011;43561;50.090;18.522;2022-11-20T05:07:52;124.72;;;77.68;;
57718;SDS011;43561;50.090;18.522;2022-11-20T05:17:56;140.32;;;80.90;;
57718;SDS011;43561;50.090;18.522;2022-11-20T05:27:58;94.93;;;81.30;;
57718;SDS011;43561;50.090;18.522;2022-11-20T05:38:00;138.23;;;78.07;;
57718;SDS011;43561;50.090;18.522;2022-11-20T05:48:02;112.68;;;74.18;;
57718;SDS011;43561;50.090;18.522;2022-11-20T05:58:04;133.55;;;77.90;;
57718;SDS011;43561;50.090;18.522;2022-11-20T06:08:06;128.60;;;78.43;;
57718;SDS011;43561;50.090;18.522;2022-11-20T06:18:08;123.45;;;84.97;;
57718;SDS011;43561;50.090;18.522;2022-11-20T06:28:10;105.70;;;75.78;;
57718;SDS011;43561;50.090;18.522;2022-11-20T06:38:12;109.10;;;66.57;;
57718;SDS011;43561;50.090;18.522;2022-11-20T06:48:14;124.78;;;80.18;;
57718;SDS011;43561;50.090;18.522;2022-11-20T06:58:17;112.20;;;86.63;;
57718;SDS011;43561;50.090;18.522;2022-11-20T07:08:19;88.55;;;78.03;;
57718;SDS011;43561;50.090;18.522;2022-11-20T07:18:21;212.27;;;118.75;;
57718;SDS011;43561;50.090;18.522;2022-11-20T07:28:23;160.05;;;96.03;;
57718;SDS011;43561;50.090;18.522;2022-11-20T07:38:25;150.38;;;103.80;;
57718;SDS011;43561;50.090;18.522;2022-11-20T07:48:27;161.63;;;104.82;;
57718;SDS011;43561;50.090;18.522;2022-11-20T07:58:29;152.82;;;94.10;;
57718;SDS011;43561;50.090;18.522;2022-11-20T08:08:32;146.68;;;84.90;;
57718;SDS011;43561;50.090;18.522;2022-11-20T08:18:36;127.97;;;79.28;;
57718;SDS011;43561;50.090;18.522;2022-11-20T08:28:38;153.05;;;102.85;;
57718;SDS011;43561;50.090;18.522;2022-11-20T08:38:40;151.05;;;76.63;;
57718;SDS011;43561;50.090;18.522;2022-11-20T08:48:42;132.27;;;84.07;;
57718;SDS011;43561;50.090;18.522;2022-11-20T08:58:44;116.95;;;70.00;;
57718;SDS011;43561;50.090;18.522;2022-11-20T09:09:06;134.60;;;60.97;;
57718;SDS011;43561;50.090;18.522;2022-11-20T09:19:08;122.53;;;74.65;;
57718;SDS011;43561;50.090;18.522;2022-11-20T09:29:33;72.65;;;52.05;;
57718;SDS011;43561;50.090;18.522;2022-11-20T09:39:42;115.32;;;58.45;;
57718;SDS011;43561;50.090;18.522;2022-11-20T09:49:58;105.05;;;54.65;;
57718;SDS011;43561;50.090;18.522;2022-11-20T10:00:05;84.90;;;44.00;;
57718;SDS011;43561;50.090;18.522;2022-11-20T10:10:16;54.47;;;33.60;;
57718;SDS011;43561;50.090;18.522;2022-11-20T10:31:10;57.53;;;29.10;;
57718;SDS011;43561;50.090;18.522;2022-11-20T10:41:20;57.67;;;27.17;;
57718;SDS011;43561;50.090;18.522;2022-11-20T10:51:33;38.28;;;21.08;;
57718;SDS011;43561;50.090;18.522;2022-11-20T11:01:42;69.68;;;27.65;;
57718;SDS011;43561;50.090;18.522;2022-11-20T11:11:44;57.60;;;29.38;;
57718;SDS011;43561;50.090;18.522;2022-11-20T11:21:47;53.78;;;32.60;;
57718;SDS011;43561;50.090;18.522;2022-11-20T11:42:13;48.17;;;22.63;;
57718;SDS011;43561;50.090;18.522;2022-11-20T12:12:50;37.67;;;18.65;;
57718;SDS011;43561;50.090;18.522;2022-11-20T12:22:59;36.80;;;18.58;;
57718;SDS011;43561;50.090;18.522;2022-11-20T12:54:06;48.65;;;18.63;;
57718;SDS011;43561;50.090;18.522;2022-11-20T13:24:51;46.95;;;22.42;;
57718;SDS011;43561;50.090;18.522;2022-11-20T13:34:54;38.03;;;19.77;;
57718;SDS011;43561;50.090;18.522;2022-11-20T13:45:01;54.78;;;25.17;;
57718;SDS011;43561;50.090;18.522;2022-11-20T14:05:51;45.65;;;24.60;;
57718;SDS011;43561;50.090;18.522;2022-11-20T14:15:57;64.00;;;25.90;;
57718;SDS011;43561;50.090;18.522;2022-11-20T14:25:59;51.47;;;23.88;;
57718;SDS011;43561;50.090;18.522;2022-11-20T14:36:01;39.45;;;20.48;;
57718;SDS011;43561;50.090;18.522;2022-11-20T14:46:05;46.72;;;21.48;;
57718;SDS011;43561;50.090;18.522;2022-11-20T14:56:09;52.63;;;28.67;;
57718;SDS011;43561;50.090;18.522;2022-11-20T15:06:11;40.45;;;19.83;;
57718;SDS011;43561;50.090;18.522;2022-11-20T15:16:16;53.55;;;23.27;;
57718;SDS011;43561;50.090;18.522;2022-11-20T15:26:23;32.90;;;20.52;;
57718;SDS011;43561;50.090;18.522;2022-11-20T15:36:27;51.47;;;20.02;;
57718;SDS011;43561;50.090;18.522;2022-11-20T15:46:30;51.45;;;23.85;;
57718;SDS011;43561;50.090;18.522;2022-11-20T15:56:34;36.95;;;20.85;;
57718;SDS011;43561;50.090;18.522;2022-11-20T16:06:36;43.65;;;26.52;;
57718;SDS011;43561;50.090;18.522;2022-11-20T16:16:38;51.55;;;30.67;;
57718;SDS011;43561;50.090;18.522;2022-11-20T16:26:40;59.47;;;24.58;;
57718;SDS011;43561;50.090;18.522;2022-11-20T16:36:42;64.72;;;28.88;;
57718;SDS011;43561;50.090;18.522;2022-11-20T16:46:45;46.80;;;25.30;;
57718;SDS011;43561;50.090;18.522;2022-11-20T16:56:47;44.08;;;25.05;;
57718;SDS011;43561;50.090;18.522;2022-11-20T17:06:49;45.92;;;26.73;;
57718;SDS011;43561;50.090;18.522;2022-11-20T17:16:51;45.67;;;27.15;;
57718;SDS011;43561;50.090;18.522;2022-11-20T17:26:53;67.78;;;35.28;;
57718;SDS011;43561;50.090;18.522;2022-11-20T17:36:55;53.78;;;30.17;;
57718;SDS011;43561;50.090;18.522;2022-11-20T17:46:59;62.67;;;28.10;;
57718;SDS011;43561;50.090;18.522;2022-11-20T17:57:01;58.60;;;32.88;;
57718;SDS011;43561;50.090;18.522;2022-11-20T18:07:03;47.08;;;24.15;;
57718;SDS011;43561;50.090;18.522;2022-11-20T18:17:07;57.90;;;31.27;;
57718;SDS011;43561;50.090;18.522;2022-11-20T18:27:14;51.50;;;21.73;;
57718;SDS011;43561;50.090;18.522;2022-11-20T18:37:18;52.35;;;28.05;;
57718;SDS011;43561;50.090;18.522;2022-11-20T18:47:28;39.28;;;26.00;;
57718;SDS011;43561;50.090;18.522;2022-11-20T18:57:31;79.07;;;35.63;;
57718;SDS011;43561;50.090;18.522;2022-11-20T19:07:33;59.83;;;30.73;;
57718;SDS011;43561;50.090;18.522;2022-11-20T19:17:35;45.15;;;23.30;;
57718;SDS011;43561;50.090;18.522;2022-11-20T19:27:37;37.42;;;23.38;;
57718;SDS011;43561;50.090;18.522;2022-11-20T19:37:39;46.00;;;23.30;;
57718;SDS011;43561;50.090;18.522;2022-11-20T19:47:41;51.10;;;27.38;;
57718;SDS011;43561;50.090;18.522;2022-11-20T19:58:02;70.07;;;31.55;;
57718;SDS011;43561;50.090;18.522;2022-11-20T20:08:04;52.75;;;28.48;;
57718;SDS011;43561;50.090;18.522;2022-11-20T20:18:06;72.18;;;30.95;;
57718;SDS011;43561;50.090;18.522;2022-11-20T20:28:08;56.50;;;26.33;;
57718;SDS011;43561;50.090;18.522;2022-11-20T20:38:10;45.55;;;25.13;;
57718;SDS011;43561;50.090;18.522;2022-11-20T20:48:13;65.13;;;26.83;;
57718;SDS011;43561;50.090;18.522;2022-11-20T20:58:19;46.47;;;25.40;;
57718;SDS011;43561;50.090;18.522;2022-11-20T21:08:21;67.70;;;27.70;;
57718;SDS011;43561;50.090;18.522;2022-11-20T21:18:23;55.83;;;30.98;;
57718;SDS011;43561;50.090;18.522;2022-11-20T21:28:26;33.60;;;21.92;;
57718;SDS011;43561;50.090;18.522;2022-11-20T21:38:29;43.08;;;26.10;;
57718;SDS011;43561;50.090;18.522;2022-11-20T21:48:31;85.63;;;36.35;;
57718;SDS011;43561;50.090;18.522;2022-11-20T21:58:34;73.13;;;35.05;;
57718;SDS011;43561;50.090;18.522;2022-11-20T22:08:38;61.70;;;33.00;;
57718;SDS011;43561;50.090;18.522;2022-11-20T22:18:41;61.20;;;34.88;;
57718;SDS011;43561;50.090;18.522;2022-11-20T22:28:47;72.28;;;36.78;;
57718;SDS011;43561;50.090;18.522;2022-11-20T22:38:51;77.75;;;31.20;;
57718;SDS011;43561;50.090;18.522;2022-11-20T22:58:58;77.80;;;27.77;;
57718;SDS011;43561;50.090;18.522;2022-11-20T23:09:01;60.55;;;29.90;;
57718;SDS011;43561;50.090;18.522;2022-11-20T23:19:05;49.45;;;32.53;;
57718;SDS011;43561;50.090;18.522;2022-11-20T23:29:09;52.22;;;29.00;;
57718;SDS011;43561;50.090;18.522;2022-11-20T23:39:11;44.00;;;21.80;;
57718;SDS011;43561;50.090;18.522;2022-11-20T23:49:13;45.97;;;26.50;;
57718;SDS011;43561;50.090;18.522;2022-11-20T23:59:15;44.60;;;23.33;;
